Time;durP1;ratioP1;P1;durP2;ratioP2;P2;SDS_P1;SDS_P2;PMS_P1;PMS_P2;Temp;Humidity;BMP_temperature;BMP_pressure;BME280_temperature;BME280_humidity;BME280_pressure;Samples;Min_cycle;Max_cycle;Signal;HPM_P1;HPM_P2
2024/01/08 00:00:24;;;;;;;;;;;102.50;2227.20;;;;;;4956808;28;20005;-78
2024/01/08 00:02:50;;;;;;;;;;;102.50;2227.20;;;;;;4973994;28;20253;-79
2024/01/08 00:05:16;;;;;;;;;;;102.70;2227.20;;;;;;4974181;28;19906;-78
2024/01/08 00:07:41;;;;;;;;;;;102.60;2227.20;;;;;;4966622;28;20334;-78
2024/01/08 00:10:07;;;;;;;;;;;102.60;2227.20;;;;;;4956694;28;19913;-77
2024/01/08 00:12:33;;;;;;;;;;;102.60;2227.20;;;;;;4973757;28;20277;-79
2024/01/08 00:14:58;;;;;;;;;;;102.60;2227.20;;;;;;4973866;28;19913;-77
2024/01/08 00:17:24;;;;;;;;;;;102.60;2227.20;;;;;;4956229;28;19910;-78
2024/01/08 00:19:49;;;;;;;;;;;102.50;2227.20;;;;;;4957010;28;19971;-78
2024/01/08 00:22:15;;;;;;;;;;;102.60;2227.20;;;;;;4957398;28;20024;-80
2024/01/08 00:24:41;;;;;;;;;;;102.50;2227.20;;;;;;4977870;28;20534;-77
2024/01/08 00:27:06;;;;;;;;;;;102.50;2227.20;;;;;;4978175;28;19997;-77
2024/01/08 00:29:32;;;;;;;;;;;102.50;2227.20;;;;;;4978559;28;19905;-75
2024/01/08 00:31:57;;;;;;;;;;;102.50;2227.20;;;;;;4976812;28;20363;-76
2024/01/08 00:34:27;;;;;;;;;;;102.40;2227.20;;;;;;4978190;28;19953;-76
2024/01/08 00:36:52;;;;;;;;;;;102.40;2227.20;;;;;;4977965;28;19942;-75
2024/01/08 00:39:18;;;;;;;;;;;102.40;2227.20;;;;;;4976564;28;20506;-77
2024/01/08 00:41:44;;;;;;;;;;;77.70;2227.20;;;;;;4977944;28;19938;-79
2024/01/08 00:44:09;;;;;;;;;;;102.40;2227.20;;;;;;4970349;28;19914;-77
2024/01/08 00:46:35;;;;;;;;;;;102.40;2227.20;;;;;;4970124;28;19907;-77
2024/01/08 00:49:00;;;;;;;;;;;77.70;2227.20;;;;;;4960517;28;20256;-80
2024/01/08 00:51:26;;;;;;;;;;;102.40;2227.20;;;;;;4960383;28;19917;-77
2024/01/08 00:53:52;;;;;;;;;;;102.40;2227.20;;;;;;4960529;28;19961;-76
2024/01/08 00:56:18;;;;;;;;;;;102.40;2227.20;;;;;;4960122;28;19966;-78
2024/01/08 00:58:44;;;;;;;;;;;102.40;2227.20;;;;;;4977684;28;19914;-78
2024/01/08 01:01:11;;;;;;;;;;;77.70;2227.20;;;;;;4976435;28;19917;-77
2024/01/08 01:03:37;;;;;;;;;;;77.70;2227.20;;;;;;4960529;28;19913;-76
2024/01/08 01:06:02;;;;;;;;;;;77.60;2227.20;;;;;;4960040;28;19910;-77
2024/01/08 01:08:28;;;;;;;;;;;77.60;2227.20;;;;;;4959957;28;19906;-77
2024/01/08 01:10:53;;;;;;;;;;;77.70;2227.20;;;;;;4969600;28;19917;-77
2024/01/08 01:13:19;;;;;;;;;;;77.60;2227.20;;;;;;4977406;28;20371;-77
2024/01/08 01:15:45;;;;;;;;;;;77.70;2227.20;;;;;;4975808;28;19988;-79
2024/01/08 01:18:10;;;;;;;;;;;77.70;2227.20;;;;;;4977524;28;19914;-76
2024/01/08 01:20:36;;;;;;;;;;;77.70;2227.20;;;;;;4975872;28;19961;-77
2024/01/08 01:23:02;;;;;;;;;;;77.70;2227.20;;;;;;4975860;28;19914;-78
2024/01/08 01:25:27;;;;;;;;;;;77.70;2227.20;;;;;;4966046;28;19997;-77
2024/01/08 01:27:53;;;;;;;;;;;102.40;2227.20;;;;;;4973712;28;20324;-77
2024/01/08 01:30:18;;;;;;;;;;;77.70;2227.20;;;;;;4958731;28;20435;-76
2024/01/08 01:32:44;;;;;;;;;;;77.70;2227.20;;;;;;4975725;28;19914;-78
2024/01/08 01:35:10;;;;;;;;;;;77.70;2227.20;;;;;;4979085;28;19913;-76
2024/01/08 01:37:35;;;;;;;;;;;77.70;2227.20;;;;;;4975884;28;19913;-77
2024/01/08 01:40:01;;;;;;;;;;;77.60;2227.20;;;;;;4975080;28;19956;-76
2024/01/08 01:42:27;;;;;;;;;;;77.60;2227.20;;;;;;4957941;28;20000;-77
2024/01/08 01:44:52;;;;;;;;;;;77.60;2227.20;;;;;;4976678;28;19906;-78
2024/01/08 01:47:18;;;;;;;;;;;77.70;2227.20;;;;;;4960515;28;19910;-77
2024/01/08 01:49:43;;;;;;;;;;;77.70;2227.20;;;;;;4974125;28;20312;-76
2024/01/08 01:52:09;;;;;;;;;;;77.60;2227.20;;;;;;4976577;28;20323;-76
2024/01/08 01:54:35;;;;;;;;;;;77.60;2227.20;;;;;;4955323;28;19914;-78
2024/01/08 01:57:02;;;;;;;;;;;77.60;2227.20;;;;;;4957985;28;19914;-77
2024/01/08 01:59:28;;;;;;;;;;;102.40;2227.20;;;;;;4985543;28;20272;-76
2024/01/08 02:01:54;;;;;;;;;;;102.40;2227.20;;;;;;4984919;28;19910;-78
2024/01/08 02:04:21;;;;;;;;;;;77.70;2227.20;;;;;;4962693;28;19910;-78
2024/01/08 02:06:48;;;;;;;;;;;102.40;2227.20;;;;;;4975603;28;19949;-78
2024/01/08 02:09:13;;;;;;;;;;;102.50;2227.20;;;;;;4955579;28;19910;-77
2024/01/08 02:11:39;;;;;;;;;;;102.50;2227.20;;;;;;4963228;28;19914;-76
2024/01/08 02:14:05;;;;;;;;;;;102.40;2227.20;;;;;;4959007;28;19906;-75
2024/01/08 02:19:28;;;;;;;;;;;77.60;2227.20;;;;;;4877773;23;20462;-78
2024/01/08 02:21:53;;;;;;;;;;;77.70;2227.20;;;;;;4944101;28;20021;-75
2024/01/08 02:24:19;;;;;;;;;;;77.70;2227.20;;;;;;4957378;28;20000;-77
2024/01/08 02:26:44;;;;;;;;;;;77.70;2227.20;;;;;;4969987;28;20016;-77
2024/01/08 02:29:10;;;;;;;;;;;77.70;2227.20;;;;;;4957094;28;19906;-78
2024/01/08 02:31:36;;;;;;;;;;;102.40;2227.20;;;;;;4975099;28;19985;-77
2024/01/08 02:34:01;;;;;;;;;;;77.70;2227.20;;;;;;4975106;28;19910;-77
2024/01/08 02:36:27;;;;;;;;;;;77.60;2227.20;;;;;;4959396;28;19973;-76
2024/01/08 02:38:52;;;;;;;;;;;77.70;2227.20;;;;;;4979855;28;19914;-76
2024/01/08 02:41:18;;;;;;;;;;;77.70;2227.20;;;;;;4961341;28;19906;-77
2024/01/08 02:43:44;;;;;;;;;;;77.70;2227.20;;;;;;4974244;28;19929;-78
2024/01/08 02:46:09;;;;;;;;;;;77.70;2227.20;;;;;;4973822;28;19929;-75
2024/01/08 02:48:35;;;;;;;;;;;77.70;2227.20;;;;;;4956949;28;19949;-77
2024/01/08 02:51:00;;;;;;;;;;;77.70;2227.20;;;;;;4974648;28;19918;-76
2024/01/08 02:53:26;;;;;;;;;;;77.60;2227.20;;;;;;4974227;28;20290;-75
2024/01/08 02:55:51;;;;;;;;;;;77.70;2227.20;;;;;;4974270;28;19914;-77
2024/01/08 02:58:17;;;;;;;;;;;77.60;2227.20;;;;;;4973701;28;20379;-76
2024/01/08 03:00:43;;;;;;;;;;;77.50;2227.20;;;;;;4971833;28;19916;-77
2024/01/08 03:03:08;;;;;;;;;;;77.40;2227.20;;;;;;4950189;28;19910;-75
2024/01/08 03:05:34;;;;;;;;;;;77.40;2227.20;;;;;;4955361;28;19910;-83
2024/01/08 03:07:59;;;;;;;;;;;77.30;2227.20;;;;;;4964212;28;19906;-75
2024/01/08 03:10:25;;;;;;;;;;;77.30;2227.20;;;;;;4972881;28;19928;-76
2024/01/08 03:12:51;;;;;;;;;;;77.30;2227.20;;;;;;4951433;28;19961;-75
2024/01/08 03:15:16;;;;;;;;;;;77.40;2227.20;;;;;;4952896;28;19916;-75
2024/01/08 03:17:42;;;;;;;;;;;77.40;2227.20;;;;;;4974028;28;20430;-76
2024/01/08 03:20:10;;;;;;;;;;;77.30;2227.20;;;;;;4955659;28;19918;-77
2024/01/08 03:22:36;;;;;;;;;;;77.40;2227.20;;;;;;4956352;28;20261;-77
2024/01/08 03:25:02;;;;;;;;;;;77.60;2227.20;;;;;;4974245;28;19913;-77
2024/01/08 03:27:27;;;;;;;;;;;77.60;2227.20;;;;;;4973618;28;19917;-78
2024/01/08 03:29:53;;;;;;;;;;;77.60;2227.20;;;;;;4956289;28;19906;-76
2024/01/08 03:32:19;;;;;;;;;;;77.50;2227.20;;;;;;4973875;28;19906;-76
2024/01/08 03:34:46;;;;;;;;;;;77.50;2227.20;;;;;;4973747;28;20375;-77
2024/01/08 03:37:11;;;;;;;;;;;77.50;2227.20;;;;;;4956121;28;19906;-83
2024/01/08 03:39:37;;;;;;;;;;;77.40;2227.20;;;;;;4973677;28;19997;-76
2024/01/08 03:42:03;;;;;;;;;;;77.30;2227.20;;;;;;4956666;28;20344;-78
2024/01/08 03:44:29;;;;;;;;;;;77.40;2227.20;;;;;;4956464;28;19910;-76
2024/01/08 03:46:55;;;;;;;;;;;77.40;2227.20;;;;;;4956247;28;19906;-76
2024/01/08 03:49:20;;;;;;;;;;;77.40;2227.20;;;;;;4956223;28;20245;-79
2024/01/08 03:51:46;;;;;;;;;;;77.70;2227.20;;;;;;4973778;28;19928;-78
2024/01/08 03:54:12;;;;;;;;;;;77.50;2227.20;;;;;;4956225;28;19929;-78
2024/01/08 03:56:39;;;;;;;;;;;77.50;2227.20;;;;;;4957594;28;19997;-79
2024/01/08 03:59:04;;;;;;;;;;;77.50;2227.20;;;;;;4959962;28;19914;-78
2024/01/08 04:01:30;;;;;;;;;;;77.50;2227.20;;;;;;4977459;28;19913;-79
2024/01/08 04:03:56;;;;;;;;;;;77.40;2227.20;;;;;;4960210;28;19938;-77
2024/01/08 04:06:21;;;;;;;;;;;77.30;2227.20;;;;;;4977555;28;19906;-77
2024/01/08 04:08:47;;;;;;;;;;;77.40;2227.20;;;;;;4977198;28;19913;-76
2024/01/08 04:11:13;;;;;;;;;;;77.40;2227.20;;;;;;4960318;28;20360;-76
2024/01/08 04:13:38;;;;;;;;;;;77.50;2227.20;;;;;;4977236;28;20048;-77
2024/01/08 04:16:05;;;;;;;;;;;77.30;2227.20;;;;;;4960390;28;19906;-77
2024/01/08 04:18:30;;;;;;;;;;;77.30;2227.20;;;;;;4959689;28;19914;-79
2024/01/08 04:20:56;;;;;;;;;;;77.30;2227.20;;;;;;4959644;28;19945;-76
2024/01/08 04:23:22;;;;;;;;;;;77.50;2227.20;;;;;;4959968;28;19932;-77
2024/01/08 04:25:47;;;;;;;;;;;77.60;2227.20;;;;;;4976967;28;19910;-77
2024/01/08 04:28:13;;;;;;;;;;;77.60;2227.20;;;;;;4959075;28;20351;-77
2024/01/08 04:30:38;;;;;;;;;;;77.60;2227.20;;;;;;4959712;28;19910;-78
2024/01/08 04:33:04;;;;;;;;;;;77.30;2227.20;;;;;;4959767;28;20264;-77
2024/01/08 04:35:29;;;;;;;;;;;77.20;2227.20;;;;;;4976876;28;19913;-77
2024/01/08 04:37:55;;;;;;;;;;;77.30;2227.20;;;;;;4976676;28;20299;-81
2024/01/08 04:40:21;;;;;;;;;;;77.30;2227.20;;;;;;4976695;28;19913;-80
2024/01/08 04:42:46;;;;;;;;;;;77.30;2227.20;;;;;;4959727;28;19910;-77
2024/01/08 04:45:12;;;;;;;;;;;77.20;2227.20;;;;;;4976691;28;19917;-76
2024/01/08 04:47:38;;;;;;;;;;;77.10;2227.20;;;;;;4959117;28;19913;-76
2024/01/08 04:50:05;;;;;;;;;;;77.10;2227.20;;;;;;4959639;28;19914;-77
2024/01/08 04:52:31;;;;;;;;;;;77.10;2227.20;;;;;;4959191;28;19997;-76
2024/01/08 04:54:56;;;;;;;;;;;76.90;2227.20;;;;;;4976787;28;20037;-77
2024/01/08 04:57:22;;;;;;;;;;;76.90;2227.20;;;;;;4959290;28;20394;-76
2024/01/08 04:59:47;;;;;;;;;;;77.00;2227.20;;;;;;4976647;28;19906;-77
2024/01/08 05:02:13;;;;;;;;;;;77.10;2227.20;;;;;;4976347;28;20391;-77
2024/01/08 05:04:38;;;;;;;;;;;77.00;2227.20;;;;;;4959476;28;19910;-77
2024/01/08 05:07:04;;;;;;;;;;;77.10;2227.20;;;;;;4976414;28;19994;-77
2024/01/08 05:09:30;;;;;;;;;;;76.90;2227.20;;;;;;4958454;28;19906;-76
2024/01/08 05:11:56;;;;;;;;;;;76.90;2227.20;;;;;;4959063;28;19906;-76
2024/01/08 05:14:21;;;;;;;;;;;76.80;2227.20;;;;;;4976394;28;19906;-78
2024/01/08 05:16:47;;;;;;;;;;;76.90;2227.20;;;;;;4975982;28;19929;-77
2024/01/08 05:19:13;;;;;;;;;;;77.00;2227.20;;;;;;4958607;28;19981;-78
2024/01/08 05:21:38;;;;;;;;;;;77.00;2227.20;;;;;;4958841;28;19980;-76
2024/01/08 05:24:05;;;;;;;;;;;77.00;2227.20;;;;;;4958927;28;19997;-76
2024/01/08 05:26:30;;;;;;;;;;;77.30;2227.20;;;;;;4958619;28;19925;-77
2024/01/08 05:28:56;;;;;;;;;;;77.00;2227.20;;;;;;4975931;28;20005;-77
2024/01/08 05:31:22;;;;;;;;;;;77.00;2227.20;;;;;;4976266;28;19906;-81
2024/01/08 05:33:49;;;;;;;;;;;77.00;2227.20;;;;;;4958677;28;20356;-76
2024/01/08 05:36:14;;;;;;;;;;;77.20;2227.20;;;;;;4976189;28;20283;-81
2024/01/08 05:38:40;;;;;;;;;;;77.30;2227.20;;;;;;4958820;28;19914;-77
2024/01/08 05:41:05;;;;;;;;;;;77.10;2227.20;;;;;;4958528;28;19906;-83
2024/01/08 05:43:37;;;;;;;;;;;77.10;2227.20;;;;;;4958466;28;19906;-75
2024/01/08 05:46:06;;;;;;;;;;;77.20;2227.20;;;;;;4957771;28;19914;-76
2024/01/08 05:48:39;;;;;;;;;;;77.10;2227.20;;;;;;4975918;28;20121;-76
2024/01/08 05:51:07;;;;;;;;;;;77.00;2227.20;;;;;;4957819;28;19914;-75
2024/01/08 05:53:33;;;;;;;;;;;77.10;2227.20;;;;;;4975920;28;19957;-76
2024/01/08 05:55:59;;;;;;;;;;;77.10;2227.20;;;;;;4958474;28;19906;-75
2024/01/08 05:58:25;;;;;;;;;;;77.10;2227.20;;;;;;4983675;28;19956;-75
2024/01/08 06:00:53;;;;;;;;;;;77.20;2227.20;;;;;;4985318;28;19906;-76
2024/01/08 06:03:19;;;;;;;;;;;77.00;2227.20;;;;;;4958411;28;19913;-76
2024/01/08 06:05:45;;;;;;;;;;;76.90;2227.20;;;;;;4958241;28;19906;-76
2024/01/08 06:08:10;;;;;;;;;;;76.90;2227.20;;;;;;4958068;28;20006;-77
2024/01/08 06:10:38;;;;;;;;;;;77.10;2227.20;;;;;;4957889;28;19998;-76
2024/01/08 06:13:05;;;;;;;;;;;77.30;2227.20;;;;;;4957848;28;19906;-76
2024/01/08 06:15:30;;;;;;;;;;;77.10;2227.20;;;;;;4957846;28;19929;-77
2024/01/08 06:17:56;;;;;;;;;;;77.00;2227.20;;;;;;4974987;28;20355;-77
2024/01/08 06:20:22;;;;;;;;;;;77.00;2227.20;;;;;;4973759;28;20025;-76
2024/01/08 06:22:47;;;;;;;;;;;77.00;2227.20;;;;;;4956885;28;19906;-77
2024/01/08 06:25:13;;;;;;;;;;;77.00;2227.20;;;;;;4974964;28;19931;-77
2024/01/08 06:27:38;;;;;;;;;;;76.90;2227.20;;;;;;4974984;28;19906;-76
2024/01/08 06:30:04;;;;;;;;;;;76.90;2227.20;;;;;;4974543;28;19995;-79
2024/01/08 06:32:30;;;;;;;;;;;76.90;2227.20;;;;;;4958005;28;19927;-79
2024/01/08 06:34:56;;;;;;;;;;;77.00;2227.20;;;;;;4957577;28;20378;-75
2024/01/08 06:37:21;;;;;;;;;;;77.10;2227.20;;;;;;4965080;28;19906;-75
2024/01/08 06:39:47;;;;;;;;;;;76.90;2227.20;;;;;;4973641;28;19977;-74
2024/01/08 06:42:13;;;;;;;;;;;76.90;2227.20;;;;;;4959276;28;20382;-74
2024/01/08 06:44:39;;;;;;;;;;;76.80;2227.20;;;;;;4973849;28;19933;-76
2024/01/08 06:47:04;;;;;;;;;;;76.80;2227.20;;;;;;4975107;28;19906;-74
2024/01/08 06:49:30;;;;;;;;;;;76.80;2227.20;;;;;;4959639;28;20288;-76
2024/01/08 06:51:55;;;;;;;;;;;76.90;2227.20;;;;;;4974165;28;20374;-76
2024/01/08 06:54:21;;;;;;;;;;;76.80;2227.20;;;;;;4974640;28;19997;-74
2024/01/08 06:56:47;;;;;;;;;;;76.90;2227.20;;;;;;4962830;28;20340;-74
2024/01/08 06:59:14;;;;;;;;;;;76.80;2227.20;;;;;;4974335;28;19918;-78
2024/01/08 07:01:39;;;;;;;;;;;76.80;2227.20;;;;;;4975311;28;20267;-78
2024/01/08 07:04:05;;;;;;;;;;;76.80;2227.20;;;;;;4960283;28;19914;-77
2024/01/08 07:06:32;;;;;;;;;;;52.10;2227.20;;;;;;4956227;28;20045;-76
2024/01/08 07:08:57;;;;;;;;;;;52.10;2227.20;;;;;;4960847;28;19910;-82
2024/01/08 07:11:23;;;;;;;;;;;52.10;2227.20;;;;;;4968799;28;19917;-79
2024/01/08 07:13:49;;;;;;;;;;;52.00;2227.20;;;;;;4974679;28;19905;-74
2024/01/08 07:16:15;;;;;;;;;;;76.90;2227.20;;;;;;4974595;28;19906;-76
2024/01/08 07:18:41;;;;;;;;;;;76.90;2227.20;;;;;;4956990;28;19914;-81
2024/01/08 07:21:07;;;;;;;;;;;76.80;2227.20;;;;;;4956599;28;19929;-80
2024/01/08 07:23:35;;;;;;;;;;;76.90;2227.20;;;;;;4956644;28;19910;-76
2024/01/08 07:26:00;;;;;;;;;;;76.90;2227.20;;;;;;4954592;28;19953;-77
2024/01/08 07:28:27;;;;;;;;;;;76.90;2227.20;;;;;;4949788;28;20323;-79
2024/01/08 07:30:53;;;;;;;;;;;76.90;2227.20;;;;;;4957692;28;20042;-78
2024/01/08 07:33:19;;;;;;;;;;;76.90;2227.20;;;;;;4974019;28;20437;-77
2024/01/08 07:35:44;;;;;;;;;;;76.80;2227.20;;;;;;4974548;28;20004;-76
2024/01/08 07:38:10;;;;;;;;;;;76.80;2227.20;;;;;;4974335;28;20005;-77
2024/01/08 07:40:35;;;;;;;;;;;76.80;2227.20;;;;;;4957058;28;20345;-77
2024/01/08 07:43:01;;;;;;;;;;;76.80;2227.20;;;;;;4956750;28;19938;-80
2024/01/08 07:45:27;;;;;;;;;;;76.90;2227.20;;;;;;4957014;28;19910;-75
2024/01/08 07:47:54;;;;;;;;;;;76.90;2227.20;;;;;;4974363;28;19910;-81
2024/01/08 07:50:20;;;;;;;;;;;76.90;2227.20;;;;;;4957108;28;19914;-77
2024/01/08 07:52:46;;;;;;;;;;;52.10;2227.20;;;;;;4956938;28;19906;-78
2024/01/08 07:55:11;;;;;;;;;;;52.10;2227.20;;;;;;4965631;28;20343;-76
2024/01/08 07:57:37;;;;;;;;;;;52.10;2227.20;;;;;;4974275;28;19921;-76
2024/01/08 08:00:06;;;;;;;;;;;52.10;2227.20;;;;;;4958756;28;19910;-76
2024/01/08 08:02:32;;;;;;;;;;;52.10;2227.20;;;;;;4956518;28;20276;-81
2024/01/08 08:04:58;;;;;;;;;;;52.10;2227.20;;;;;;4974244;28;20000;-76
2024/01/08 08:07:24;;;;;;;;;;;52.10;2227.20;;;;;;4973860;28;19970;-76
2024/01/08 08:09:50;;;;;;;;;;;52.10;2227.20;;;;;;4973810;28;19910;-78
2024/01/08 08:12:16;;;;;;;;;;;52.10;2227.20;;;;;;4974845;28;20370;-76
2024/01/08 08:14:43;;;;;;;;;;;51.90;2227.20;;;;;;4974196;28;19910;-76
2024/01/08 08:17:09;;;;;;;;;;;52.10;2227.20;;;;;;4974214;28;19906;-75
2024/01/08 08:19:35;;;;;;;;;;;52.10;2227.20;;;;;;4973906;28;19949;-81
2024/01/08 08:22:01;;;;;;;;;;;52.10;2227.20;;;;;;4956602;28;19918;-79
2024/01/08 08:24:26;;;;;;;;;;;76.80;2227.20;;;;;;4973945;28;20367;-76
2024/01/08 08:26:52;;;;;;;;;;;76.80;2227.20;;;;;;4974603;28;19910;-85
2024/01/08 08:29:17;;;;;;;;;;;52.00;2227.20;;;;;;4974511;28;20359;-75
2024/01/08 08:31:43;;;;;;;;;;;52.00;2227.20;;;;;;4956945;28;19913;-75
2024/01/08 08:34:10;;;;;;;;;;;52.00;2227.20;;;;;;4973554;28;19960;-74
2024/01/08 08:36:39;;;;;;;;;;;52.00;2227.20;;;;;;4962588;28;19965;-77
2024/01/08 08:39:05;;;;;;;;;;;52.10;2227.20;;;;;;4955924;28;19914;-76
2024/01/08 08:41:31;;;;;;;;;;;76.80;2227.20;;;;;;4973703;28;20001;-73
2024/01/08 08:43:57;;;;;;;;;;;52.10;2227.20;;;;;;4957445;28;19957;-75
2024/01/08 08:46:22;;;;;;;;;;;51.90;2227.20;;;;;;4959447;28;20422;-80
2024/01/08 08:48:48;;;;;;;;;;;52.10;2227.20;;;;;;4969342;28;19992;-78
2024/01/08 08:51:14;;;;;;;;;;;52.10;2227.20;;;;;;4957904;28;19910;-80
2024/01/08 08:53:39;;;;;;;;;;;52.10;2227.20;;;;;;4960577;28;20284;-76
2024/01/08 08:56:05;;;;;;;;;;;52.10;2227.20;;;;;;4960595;28;19910;-81
2024/01/08 08:58:31;;;;;;;;;;;76.80;2227.20;;;;;;4965750;28;19913;-76
2024/01/08 09:00:56;;;;;;;;;;;52.10;2227.20;;;;;;4977367;28;19910;-77
2024/01/08 09:03:22;;;;;;;;;;;76.90;2227.20;;;;;;4959890;28;20017;-76
2024/01/08 09:05:48;;;;;;;;;;;76.90;2227.20;;;;;;4957114;28;20249;-76
2024/01/08 09:08:14;;;;;;;;;;;77.00;2227.20;;;;;;4977547;28;19996;-77
2024/01/08 09:10:39;;;;;;;;;;;76.80;2227.20;;;;;;4959807;28;20374;-77
2024/01/08 09:13:05;;;;;;;;;;;76.90;2227.20;;;;;;4968004;28;20261;-76
2024/01/08 09:15:30;;;;;;;;;;;76.90;2227.20;;;;;;4968379;28;19933;-76
2024/01/08 09:17:56;;;;;;;;;;;76.80;2227.20;;;;;;4992116;28;19919;-75
2024/01/08 09:20:22;;;;;;;;;;;52.10;2227.20;;;;;;4965416;28;19930;-76
2024/01/08 09:22:48;;;;;;;;;;;52.00;2227.20;;;;;;4958939;28;19910;-77
2024/01/08 09:25:14;;;;;;;;;;;52.00;2227.20;;;;;;4976438;28;20356;-74
2024/01/08 09:27:42;;;;;;;;;;;51.90;2227.20;;;;;;4976821;28;19906;-74
2024/01/08 09:30:08;;;;;;;;;;;51.80;2227.20;;;;;;4976856;28;20245;-75
2024/01/08 09:32:33;;;;;;;;;;;51.70;2227.20;;;;;;4976625;28;19910;-74
2024/01/08 09:34:59;;;;;;;;;;;51.80;2227.20;;;;;;4976528;28;19906;-73
2024/01/08 09:37:25;;;;;;;;;;;51.80;2227.20;;;;;;4961149;28;19946;-75
2024/01/08 09:39:51;;;;;;;;;;;51.80;2227.20;;;;;;4957272;28;19941;-74
2024/01/08 09:42:17;;;;;;;;;;;51.90;2227.20;;;;;;4976657;28;19906;-76
2024/01/08 09:44:45;;;;;;;;;;;51.80;2227.20;;;;;;4971841;28;20340;-76
2024/01/08 09:47:12;;;;;;;;;;;52.10;2227.20;;;;;;4958774;28;20310;-78
2024/01/08 09:49:38;;;;;;;;;;;51.90;2227.20;;;;;;4954224;28;19921;-73
2024/01/08 09:52:04;;;;;;;;;;;52.00;2227.20;;;;;;4958626;28;19906;-77
2024/01/08 09:54:31;;;;;;;;;;;52.00;2227.20;;;;;;4975950;28;20016;-77
2024/01/08 09:56:58;;;;;;;;;;;51.90;2227.20;;;;;;4975021;28;19950;-79
2024/01/08 09:59:24;;;;;;;;;;;51.80;2227.20;;;;;;4959316;28;19962;-76
2024/01/08 10:01:50;;;;;;;;;;;51.70;2227.20;;;;;;4976208;28;19913;-75
2024/01/08 10:04:16;;;;;;;;;;;51.80;2227.20;;;;;;4976068;28;20355;-79
2024/01/08 10:06:44;;;;;;;;;;;51.70;2227.20;;;;;;4956790;28;19914;-77
2024/01/08 10:09:09;;;;;;;;;;;51.80;2227.20;;;;;;4958871;28;19906;-79
2024/01/08 10:11:36;;;;;;;;;;;51.90;2227.20;;;;;;4959126;28;20257;-76
2024/01/08 10:14:01;;;;;;;;;;;51.90;2227.20;;;;;;4958531;28;19910;-77
2024/01/08 10:16:27;;;;;;;;;;;51.90;2227.20;;;;;;4961480;28;19930;-77
2024/01/08 10:18:53;;;;;;;;;;;52.00;2227.20;;;;;;4975494;28;20391;-76
2024/01/08 10:21:18;;;;;;;;;;;76.80;2227.20;;;;;;4958162;28;19922;-76
2024/01/08 10:23:46;;;;;;;;;;;52.10;2227.20;;;;;;4957083;28;20009;-83
2024/01/08 10:26:13;;;;;;;;;;;76.80;2227.20;;;;;;4954664;28;19930;-75
2024/01/08 10:28:38;;;;;;;;;;;52.10;2227.20;;;;;;4957744;28;20013;-75
2024/01/08 10:31:05;;;;;;;;;;;52.10;2227.20;;;;;;4975897;28;19968;-84
2024/01/08 10:33:31;;;;;;;;;;;76.80;2227.20;;;;;;4957807;28;19961;-78
2024/01/08 10:35:57;;;;;;;;;;;51.90;2227.20;;;;;;4958059;28;19906;-77
2024/01/08 10:38:23;;;;;;;;;;;51.80;2227.20;;;;;;4975496;28;20028;-77
2024/01/08 10:40:49;;;;;;;;;;;52.00;2227.20;;;;;;4958599;28;20275;-78
2024/01/08 10:43:14;;;;;;;;;;;51.80;2227.20;;;;;;4957456;28;19910;-77
2024/01/08 10:45:40;;;;;;;;;;;51.90;2227.20;;;;;;4957544;28;19906;-77
2024/01/08 10:48:16;;;;;;;;;;;51.80;2227.20;;;;;;4969535;28;19925;-77
2024/01/08 10:50:44;;;;;;;;;;;51.80;2227.20;;;;;;4971271;28;20008;-78
2024/01/08 10:53:14;;;;;;;;;;;52.10;2227.20;;;;;;4974654;28;19910;-78
2024/01/08 10:55:41;;;;;;;;;;;76.90;2227.20;;;;;;4965926;28;20356;-81
2024/01/08 10:58:08;;;;;;;;;;;76.80;2227.20;;;;;;4957114;28;19921;-77
2024/01/08 11:00:35;;;;;;;;;;;52.10;2227.20;;;;;;4956098;28;19929;-76
2024/01/08 11:03:01;;;;;;;;;;;76.80;2227.20;;;;;;4957619;28;19993;-75
2024/01/08 11:05:27;;;;;;;;;;;52.10;2227.20;;;;;;4956957;28;20398;-78
2024/01/08 11:07:53;;;;;;;;;;;52.00;2227.20;;;;;;4973417;28;19913;-76
2024/01/08 11:10:23;;;;;;;;;;;52.00;2227.20;;;;;;4958414;28;19910;-72
2024/01/08 11:12:54;;;;;;;;;;;52.10;2227.20;;;;;;4975019;28;19914;-74
2024/01/08 11:15:20;;;;;;;;;;;52.10;2227.20;;;;;;4975252;28;19929;-74
2024/01/08 11:17:55;;;;;;;;;;;52.00;2227.20;;;;;;4961730;28;20360;-73
2024/01/08 11:20:50;;;;;;;;;;;52.00;2227.20;;;;;;4954169;29;19922;-74
2024/01/08 11:23:25;;;;;;;;;;;52.00;2227.20;;;;;;4920667;29;19907;-77
2024/01/08 11:25:51;;;;;;;;;;;52.00;2227.20;;;;;;4916939;29;20380;-75
2024/01/08 11:28:16;;;;;;;;;;;52.10;2227.20;;;;;;4918192;29;19908;-75
2024/01/08 11:30:42;;;;;;;;;;;77.00;2227.20;;;;;;4919994;29;19914;-74
2024/01/08 11:33:13;;;;;;;;;;;76.90;2227.20;;;;;;4921044;29;19906;-74
2024/01/08 11:35:46;;;;;;;;;;;76.90;2227.20;;;;;;4910487;29;20401;-76
2024/01/08 11:38:22;;;;;;;;;;;76.80;2227.20;;;;;;4924226;29;19915;-76
2024/01/08 11:40:48;;;;;;;;;;;76.90;2227.20;;;;;;4914260;29;19907;-77
2024/01/08 11:43:13;;;;;;;;;;;76.90;2227.20;;;;;;4904439;29;19907;-80
2024/01/08 11:45:39;;;;;;;;;;;52.10;2227.20;;;;;;4917776;29;19941;-80
2024/01/08 11:48:05;;;;;;;;;;;76.80;2227.20;;;;;;4921491;29;20052;-83
2024/01/08 11:50:30;;;;;;;;;;;76.90;2227.20;;;;;;4921871;29;19951;-77
2024/01/08 11:52:58;;;;;;;;;;;76.80;2227.20;;;;;;4927847;29;19906;-78
2024/01/08 11:55:24;;;;;;;;;;;76.90;2227.20;;;;;;4921849;29;19918;-77
2024/01/08 11:57:49;;;;;;;;;;;76.80;2227.20;;;;;;4928433;29;19991;-80
2024/01/08 12:00:18;;;;;;;;;;;76.80;2227.20;;;;;;4950741;28;19949;-76
2024/01/08 12:02:44;;;;;;;;;;;76.90;2227.20;;;;;;4965757;28;19910;-76
2024/01/08 12:05:10;;;;;;;;;;;76.90;2227.20;;;;;;4979015;28;19913;-79
2024/01/08 12:07:38;;;;;;;;;;;76.80;2227.20;;;;;;4957800;28;19911;-79
2024/01/08 12:10:04;;;;;;;;;;;76.80;2227.20;;;;;;4957654;28;20351;-79
2024/01/08 12:12:30;;;;;;;;;;;76.90;2227.20;;;;;;4958762;28;19929;-77
2024/01/08 12:14:56;;;;;;;;;;;76.80;2227.20;;;;;;4957959;28;20364;-78
2024/01/08 12:17:23;;;;;;;;;;;76.90;2227.20;;;;;;4950832;28;19906;-80
2024/01/08 12:19:50;;;;;;;;;;;77.00;2227.20;;;;;;4975321;28;19968;-79
2024/01/08 12:22:19;;;;;;;;;;;77.10;2227.20;;;;;;4979145;28;19906;-77
2024/01/08 12:25:11;;;;;;;;;;;77.20;2227.20;;;;;;4958810;28;19913;-76
2024/01/08 12:27:38;;;;;;;;;;;77.10;2227.20;;;;;;4980574;28;19921;-76
2024/01/08 12:30:04;;;;;;;;;;;76.90;2227.20;;;;;;4992784;28;19917;-77
2024/01/08 12:32:30;;;;;;;;;;;77.20;2227.20;;;;;;4968696;28;19906;-80
2024/01/08 12:34:55;;;;;;;;;;;76.90;2227.20;;;;;;4977583;28;20422;-77
2024/01/08 12:37:22;;;;;;;;;;;76.90;2227.20;;;;;;4960083;28;19906;-76
2024/01/08 12:39:47;;;;;;;;;;;76.80;2227.20;;;;;;4977358;28;19915;-77
2024/01/08 12:42:14;;;;;;;;;;;76.90;2227.20;;;;;;4957432;28;20368;-78
2024/01/08 12:44:40;;;;;;;;;;;76.90;2227.20;;;;;;4959682;28;19910;-76
2024/01/08 12:47:07;;;;;;;;;;;77.00;2227.20;;;;;;4971052;28;20396;-77
2024/01/08 12:49:35;;;;;;;;;;;77.10;2227.20;;;;;;4956099;28;19914;-78
2024/01/08 12:52:02;;;;;;;;;;;76.90;2227.20;;;;;;4977930;28;19906;-77
2024/01/08 12:54:28;;;;;;;;;;;77.00;2227.20;;;;;;4977617;28;19913;-76
2024/01/08 12:56:54;;;;;;;;;;;76.90;2227.20;;;;;;4977540;28;19930;-76
2024/01/08 12:59:22;;;;;;;;;;;76.90;2227.20;;;;;;4977741;28;19961;-76
2024/01/08 13:01:47;;;;;;;;;;;76.90;2227.20;;;;;;4959813;28;19906;-75
2024/01/08 13:04:16;;;;;;;;;;;76.90;2227.20;;;;;;4978074;28;19921;-76
2024/01/08 13:06:43;;;;;;;;;;;76.80;2227.20;;;;;;4959841;28;19910;-77
2024/01/08 13:09:09;;;;;;;;;;;76.90;2227.20;;;;;;4978615;28;19906;-78
2024/01/08 13:11:35;;;;;;;;;;;76.80;2227.20;;;;;;4960744;28;19906;-76
2024/01/08 13:14:03;;;;;;;;;;;76.90;2227.20;;;;;;4977645;28;19906;-77
2024/01/08 13:16:30;;;;;;;;;;;77.00;2227.20;;;;;;4960363;28;19961;-79
2024/01/08 13:18:55;;;;;;;;;;;77.00;2227.20;;;;;;4977784;28;20379;-77
2024/01/08 13:21:21;;;;;;;;;;;77.00;2227.20;;;;;;4974575;28;20027;-77
2024/01/08 13:23:46;;;;;;;;;;;77.00;2227.20;;;;;;4978599;28;19906;-79
2024/01/08 13:26:12;;;;;;;;;;;76.90;2227.20;;;;;;4977806;28;19910;-76
2024/01/08 13:28:41;;;;;;;;;;;76.90;2227.20;;;;;;4960149;28;20345;-78
2024/01/08 13:31:08;;;;;;;;;;;52.10;2227.20;;;;;;4960294;28;19906;-78
2024/01/08 13:33:34;;;;;;;;;;;52.10;2227.20;;;;;;4973782;28;19906;-79
2024/01/08 13:36:00;;;;;;;;;;;52.00;2227.20;;;;;;4977893;28;19906;-80
2024/01/08 13:38:26;;;;;;;;;;;76.80;2227.20;;;;;;4955084;28;20511;-78
2024/01/08 13:40:57;;;;;;;;;;;52.00;2227.20;;;;;;4972489;28;20275;-82
2024/01/08 13:43:24;;;;;;;;;;;52.00;2227.20;;;;;;4978104;28;19945;-79
2024/01/08 13:45:50;;;;;;;;;;;51.90;2227.20;;;;;;4959847;28;20275;-81
2024/01/08 13:48:16;;;;;;;;;;;52.00;2227.20;;;;;;4947422;28;19993;-79